Time;durP1;ratioP1;P1;durP2;ratioP2;P2;SDS_P1;SDS_P2;PMS_P1;PMS_P2;Temp;Humidity;BMP_temperature;BMP_pressure;BME280_temperature;BME280_humidity;BME280_pressure;Samples;Min_cycle;Max_cycle;Signal;HPM_P1;HPM_P2
2021/07/09 00:01:38;;;;;;;2.20;0.40;;;;;;;;;;3587790;40;20672;-66
2021/07/09 00:04:05;;;;;;;1.00;0.40;;;16.90;99.90;;;;;;3587345;40;20374;-66
2021/07/09 00:06:31;;;;;;;1.97;0.50;;;16.50;99.90;;;;;;3577890;40;20397;-66
2021/07/09 00:08:58;;;;;;;1.70;0.40;;;;;;;;;;3577953;40;20443;-66
2021/07/09 00:11:24;;;;;;;0.93;0.60;;;16.40;99.90;;;;;;3587022;40;20394;-66
2021/07/09 00:13:50;;;;;;;1.80;0.40;;;16.30;99.90;;;;;;3587324;40;20390;-66
2021/07/09 00:16:17;;;;;;;1.60;0.50;;;16.20;99.90;;;;;;3587098;40;20482;-66
2021/07/09 00:18:43;;;;;;;0.60;0.40;;;16.20;99.90;;;;;;3587124;40;20635;-66
2021/07/09 00:21:11;;;;;;;2.30;0.70;;;16.30;99.90;;;;;;3587275;40;20694;-66
2021/07/09 00:23:37;;;;;;;1.42;0.60;;;16.30;99.90;;;;;;3577667;40;20656;-66
2021/07/09 00:26:03;;;;;;;1.40;0.50;;;16.10;99.90;;;;;;3577512;40;20409;-66
2021/07/09 00:28:29;;;;;;;2.67;0.57;;;16.10;99.90;;;;;;3587068;40;20398;-67
2021/07/09 00:30:55;;;;;;;3.35;0.63;;;16.10;99.90;;;;;;3587094;40;20379;-67
2021/07/09 00:33:21;;;;;;;2.80;0.50;;;16.10;99.90;;;;;;3575373;40;20441;-67
2021/07/09 00:35:47;;;;;;;2.28;0.70;;;15.90;99.90;;;;;;3586564;40;20421;-67
2021/07/09 00:38:14;;;;;;;2.00;0.40;;;15.80;99.90;;;;;;3587209;40;20382;-67
2021/07/09 00:40:40;;;;;;;1.27;0.50;;;15.80;99.90;;;;;;3587007;40;20455;-67
2021/07/09 00:43:06;;;;;;;2.10;0.55;;;15.80;99.90;;;;;;3587170;40;20721;-67
2021/07/09 00:45:32;;;;;;;2.20;0.50;;;15.70;99.90;;;;;;3587037;40;20394;-67
2021/07/09 00:47:58;;;;;;;2.30;0.30;;;15.60;99.90;;;;;;3587094;40;20752;-66
2021/07/09 00:50:24;;;;;;;2.13;0.40;;;15.50;99.90;;;;;;3577658;40;20667;-66
2021/07/09 00:52:50;;;;;;;0.85;0.30;;;15.50;99.90;;;;;;3587277;40;20751;-66
2021/07/09 00:55:18;;;;;;;0.73;0.40;;;15.50;99.90;;;;;;3577536;40;20410;-66
2021/07/09 00:57:46;;;;;;;3.10;0.47;;;;;;;;;;3586866;40;20770;-67
2021/07/09 01:00:21;;;;;;;1.35;0.50;;;;;;;;;;3586920;40;20772;-68
2021/07/09 01:02:48;;;;;;;2.70;0.40;;;;;;;;;;3578418;40;20868;-71
2021/07/09 01:05:15;;;;;;;1.40;0.50;;;;;;;;;;3593303;22;20435;-65
2021/07/09 01:07:41;;;;;;;1.48;0.50;;;;;;;;;;3547952;40;20427;-64
2021/07/09 01:10:09;;;;;;;1.00;0.40;;;;;;;;;;3556984;40;20386;-65
2021/07/09 01:12:37;;;;;;;1.38;0.70;;;;;;;;;;3563693;40;20385;-63
2021/07/09 01:15:05;;;;;;;2.65;0.50;;;15.50;99.90;;;;;;3559326;40;20396;-64
2021/07/09 01:17:31;;;;;;;1.30;0.50;;;15.50;99.90;;;;;;3556906;40;20455;-64
2021/07/09 01:19:57;;;;;;;2.23;0.40;;;15.70;99.90;;;;;;3563106;40;20441;-63
2021/07/09 01:22:24;;;;;;;2.38;0.40;;;15.90;99.90;;;;;;3553334;40;20799;-64
2021/07/09 01:24:51;;;;;;;4.28;0.60;;;15.90;99.90;;;;;;3559606;40;20402;-64
2021/07/09 01:27:17;;;;;;;2.00;0.50;;;15.90;99.90;;;;;;3557047;40;20389;-63
2021/07/09 01:29:43;;;;;;;2.50;0.95;;;15.90;99.90;;;;;;3557280;40;20803;-64
2021/07/09 01:32:09;;;;;;;11.30;1.83;;;15.70;99.90;;;;;;3557452;40;20430;-64
2021/07/09 01:34:35;;;;;;;3.43;0.40;;;15.80;99.90;;;;;;3556482;40;20474;-63
2021/07/09 01:37:12;;;;;;;16.30;4.47;;;15.70;99.90;;;;;;3556606;40;20399;-63
2021/07/09 01:39:38;;;;;;;3.33;0.40;;;15.70;99.90;;;;;;3554022;40;20407;-63
2021/07/09 01:42:05;;;;;;;0.30;0.10;;;15.90;99.90;;;;;;3551993;40;20481;-63
2021/07/09 01:44:33;;;;;;;1.02;0.20;;;16.20;99.90;;;;;;3556087;40;20415;-63
2021/07/09 01:46:59;;;;;;;0.30;0.20;;;16.30;99.90;;;;;;3561883;40;20378;-63
2021/07/09 01:49:25;;;;;;;0.95;0.30;;;16.10;99.90;;;;;;3556896;40;20411;-63
2021/07/09 01:51:52;;;;;;;0.25;0.20;;;16.10;99.90;;;;;;3561301;40;20626;-63
2021/07/09 01:54:18;;;;;;;4.43;1.83;;;16.00;99.90;;;;;;3556613;40;20421;-63
2021/07/09 01:56:44;;;;;;;18.45;10.20;;;16.00;99.90;;;;;;3557533;40;20406;-63
2021/07/09 01:59:12;;;;;;;9.87;4.97;;;15.90;99.90;;;;;;3557245;40;20406;-63
2021/07/09 02:01:38;;;;;;;7.72;3.80;;;15.80;99.90;;;;;;3556687;40;20407;-62
2021/07/09 02:04:04;;;;;;;5.82;3.22;;;15.70;99.90;;;;;;3556205;40;20419;-62
2021/07/09 02:06:30;;;;;;;1.60;0.77;;;15.60;99.90;;;;;;3557330;40;20768;-62
2021/07/09 02:08:56;;;;;;;4.82;2.58;;;15.50;99.90;;;;;;3557531;40;20391;-62
2021/07/09 02:11:22;;;;;;;5.35;2.03;;;15.30;99.90;;;;;;3556071;40;20446;-62
2021/07/09 02:13:47;;;;;;;3.45;0.90;;;15.20;99.90;;;;;;3556150;40;20400;-62
2021/07/09 02:16:18;;;;;;;1.45;0.80;;;15.30;99.90;;;;;;3561813;40;20420;-61
2021/07/09 02:18:46;;;;;;;2.30;0.60;;;15.50;99.90;;;;;;3556113;40;20457;-61
2021/07/09 02:21:12;;;;;;;3.17;0.50;;;15.50;99.90;;;;;;3550578;40;20389;-62
2021/07/09 02:23:38;;;;;;;34.77;21.00;;;15.50;99.90;;;;;;3554329;40;20523;-62
2021/07/09 02:26:04;;;;;;;44.67;28.30;;;15.50;99.90;;;;;;3555164;40;20791;-62
2021/07/09 02:28:31;;;;;;;53.80;31.87;;;15.50;99.90;;;;;;3555768;40;20403;-62
2021/07/09 02:30:57;;;;;;;10.38;5.15;;;15.50;99.90;;;;;;3548143;40;20665;-63
2021/07/09 02:33:24;;;;;;;27.38;13.60;;;15.40;99.90;;;;;;3556188;40;20386;-63
2021/07/09 02:35:50;;;;;;;28.27;14.80;;;15.40;99.90;;;;;;3555878;40;20529;-63
2021/07/09 02:38:16;;;;;;;11.98;5.60;;;15.30;99.90;;;;;;3543016;40;20551;-62
2021/07/09 02:40:43;;;;;;;1.90;0.75;;;15.20;99.90;;;;;;3555971;40;20783;-62
2021/07/09 02:43:09;;;;;;;1.10;0.20;;;15.30;99.90;;;;;;3557207;40;20757;-63
2021/07/09 02:45:36;;;;;;;0.90;0.13;;;15.40;99.90;;;;;;3557951;40;20414;-62
2021/07/09 02:48:02;;;;;;;0.25;0.10;;;15.60;99.90;;;;;;3564815;40;20411;-62
2021/07/09 02:50:29;;;;;;;0.88;0.13;;;15.70;99.90;;;;;;3551605;40;20400;-63
2021/07/09 02:52:55;;;;;;;0.95;0.10;;;15.80;99.90;;;;;;3551849;40;20394;-62
2021/07/09 02:55:22;;;;;;;0.63;0.10;;;15.90;99.90;;;;;;3557009;40;20411;-63
2021/07/09 02:57:49;;;;;;;6.32;1.95;;;15.80;99.90;;;;;;3555794;40;20685;-63
2021/07/09 03:00:17;;;;;;;10.57;3.25;;;15.70;99.90;;;;;;3551731;40;20379;-63
2021/07/09 03:02:43;;;;;;;8.82;2.10;;;15.60;99.90;;;;;;3558812;40;20425;-62
2021/07/09 03:05:11;;;;;;;4.93;1.70;;;15.50;99.90;;;;;;3558688;40;20407;-62
2021/07/09 03:07:39;;;;;;;8.43;1.85;;;15.40;99.90;;;;;;3559824;40;20772;-63
2021/07/09 03:10:06;;;;;;;17.23;3.20;;;15.20;99.90;;;;;;3559199;40;20541;-62
2021/07/09 03:12:32;;;;;;;10.77;1.75;;;15.10;99.90;;;;;;3557456;40;20380;-62
2021/07/09 03:14:58;;;;;;;2.25;0.32;;;15.10;99.90;;;;;;3557189;40;20435;-63
2021/07/09 03:17:24;;;;;;;2.00;0.10;;;15.30;99.90;;;;;;3557596;40;20395;-63
2021/07/09 03:19:50;;;;;;;0.20;0.00;;;15.50;99.90;;;;;;3557391;40;20664;-63
2021/07/09 03:22:15;;;;;;;2.22;0.15;;;15.90;99.90;;;;;;3553575;40;20401;-63
2021/07/09 03:24:43;;;;;;;0.60;0.00;;;16.20;99.90;;;;;;3546964;40;20407;-62
2021/07/09 03:27:10;;;;;;;0.20;0.00;;;16.40;99.90;;;;;;3556920;40;20413;-63
2021/07/09 03:29:36;;;;;;;0.10;0.00;;;16.70;99.90;;;;;;3552491;40;20401;-63
2021/07/09 03:32:03;;;;;;;0.70;0.00;;;16.90;99.90;;;;;;3532040;40;21000;-63
2021/07/09 03:34:28;;;;;;;0.00;0.00;;;17.10;99.90;;;;;;3556781;40;20399;-63
2021/07/09 03:36:54;;;;;;;1.75;0.00;;;17.20;99.90;;;;;;3557663;40;20399;-63
2021/07/09 03:39:20;;;;;;;0.60;0.00;;;17.20;99.90;;;;;;3554512;40;20501;-62
2021/07/09 03:41:48;;;;;;;0.05;0.00;;;17.30;99.90;;;;;;3561364;40;20403;-62
2021/07/09 03:44:13;;;;;;;0.60;0.00;;;17.40;99.90;;;;;;3556429;40;20415;-63
2021/07/09 03:46:39;;;;;;;1.00;0.00;;;17.60;99.30;;;;;;3557596;40;20402;-62
2021/07/09 03:49:06;;;;;;;1.10;0.00;;;17.80;98.60;;;;;;3550567;40;21075;-62
2021/07/09 03:51:33;;;;;;;0.20;0.00;;;18.00;99.00;;;;;;3557654;40;20706;-63
2021/07/09 03:53:59;;;;;;;0.98;0.00;;;18.00;98.30;;;;;;3557152;40;20485;-63
2021/07/09 03:56:29;;;;;;;0.25;0.00;;;17.90;98.00;;;;;;3553997;40;20422;-62
2021/07/09 03:58:58;;;;;;;0.80;0.00;;;18.10;97.30;;;;;;3554756;40;20371;-63
2021/07/09 04:01:24;;;;;;;1.13;0.10;;;18.20;97.40;;;;;;3557785;40;20391;-63
2021/07/09 04:03:50;;;;;;;0.30;0.00;;;18.20;97.10;;;;;;3549016;40;20435;-62
2021/07/09 04:06:17;;;;;;;1.30;0.00;;;18.30;96.50;;;;;;3557258;40;20462;-62
2021/07/09 04:08:43;;;;;;;1.40;0.00;;;18.40;96.40;;;;;;3561163;40;20405;-63
2021/07/09 04:11:09;;;;;;;0.40;0.00;;;18.40;96.50;;;;;;3558132;40;20709;-63
2021/07/09 04:13:35;;;;;;;0.57;0.00;;;18.40;96.40;;;;;;3556952;40;20500;-62
2021/07/09 04:16:03;;;;;;;0.40;0.00;;;18.40;96.20;;;;;;3557306;40;20427;-62
2021/07/09 04:18:29;;;;;;;0.70;0.00;;;18.40;96.40;;;;;;3556399;40;20477;-63
2021/07/09 04:20:55;;;;;;;0.10;0.10;;;18.40;96.40;;;;;;3552052;40;20409;-63
2021/07/09 04:23:21;;;;;;;7.20;0.55;;;18.40;95.80;;;;;;3553238;40;20392;-63
2021/07/09 04:25:48;;;;;;;1.77;0.08;;;18.40;96.20;;;;;;3557169;40;20407;-63
2021/07/09 04:28:14;;;;;;;0.10;0.00;;;18.40;96.20;;;;;;3557420;40;20399;-62
2021/07/09 04:30:40;;;;;;;0.50;0.00;;;18.30;96.10;;;;;;3556132;40;20422;-62
2021/07/09 04:33:08;;;;;;;1.25;0.00;;;18.40;95.60;;;;;;3557395;40;20407;-62
2021/07/09 04:35:34;;;;;;;0.20;0.10;;;18.50;95.90;;;;;;3555296;40;20411;-63
2021/07/09 04:38:00;;;;;;;0.10;0.00;;;18.50;97.10;;;;;;3557191;40;20407;-63
2021/07/09 04:40:26;;;;;;;1.80;0.10;;;18.50;96.70;;;;;;3556091;40;20487;-63
2021/07/09 04:42:52;;;;;;;0.90;0.00;;;18.40;96.80;;;;;;3560160;40;20399;-63
2021/07/09 04:45:18;;;;;;;0.00;0.00;;;18.40;96.60;;;;;;3556630;40;20409;-63
2021/07/09 04:47:44;;;;;;;0.10;0.00;;;18.40;96.90;;;;;;3554692;40;20451;-63
2021/07/09 04:50:12;;;;;;;0.13;0.00;;;18.40;96.30;;;;;;3556364;40;20391;-63
2021/07/09 04:52:37;;;;;;;1.38;0.05;;;18.40;96.20;;;;;;3555857;40;20467;-63
2021/07/09 04:55:05;;;;;;;0.28;0.00;;;18.50;96.00;;;;;;3556192;40;20414;-62
2021/07/09 04:57:32;;;;;;;0.75;0.00;;;18.50;96.40;;;;;;3555548;40;20411;-62
2021/07/09 04:59:58;;;;;;;1.00;0.00;;;18.50;96.50;;;;;;3553144;40;20396;-63
2021/07/09 05:02:25;;;;;;;0.10;0.00;;;18.50;96.70;;;;;;3556059;40;20667;-63
2021/07/09 05:04:51;;;;;;;0.10;0.00;;;18.50;96.10;;;;;;3551427;40;20415;-62
2021/07/09 05:07:18;;;;;;;0.20;0.00;;;18.50;95.70;;;;;;3557884;40;20450;-62
2021/07/09 05:09:44;;;;;;;0.57;0.00;;;18.60;95.80;;;;;;3557243;40;20411;-62
2021/07/09 05:12:10;;;;;;;0.00;0.00;;;18.70;95.50;;;;;;3556373;40;20387;-63
2021/07/09 05:14:36;;;;;;;0.10;0.00;;;18.70;95.40;;;;;;3555976;40;20651;-63
2021/07/09 05:17:03;;;;;;;0.30;0.00;;;18.80;95.50;;;;;;3556454;40;20419;-63
2021/07/09 05:19:29;;;;;;;0.70;0.00;;;18.80;95.90;;;;;;3556093;40;20426;-63
2021/07/09 05:21:54;;;;;;;0.50;0.00;;;18.80;95.80;;;;;;3556500;40;20391;-63
2021/07/09 05:24:25;;;;;;;0.60;0.00;;;18.80;95.60;;;;;;3561279;40;20791;-63
2021/07/09 05:26:51;;;;;;;1.00;0.00;;;18.80;95.60;;;;;;3553480;40;20403;-63
2021/07/09 05:29:17;;;;;;;0.30;0.00;;;18.80;95.90;;;;;;3556913;40;20657;-63
2021/07/09 05:31:43;;;;;;;0.60;0.00;;;18.80;95.50;;;;;;3556240;40;20383;-63
2021/07/09 05:34:09;;;;;;;0.30;0.10;;;18.90;94.70;;;;;;3555786;40;20411;-63
2021/07/09 05:36:37;;;;;;;0.00;0.00;;;19.00;94.70;;;;;;3559093;40;20420;-62
2021/07/09 05:39:04;;;;;;;0.15;0.00;;;19.10;94.40;;;;;;3552569;40;20396;-63
2021/07/09 05:41:31;;;;;;;1.20;0.20;;;19.10;95.00;;;;;;3555502;40;20419;-64
2021/07/09 05:43:57;;;;;;;1.17;0.08;;;19.10;94.10;;;;;;3556447;40;20411;-63
2021/07/09 05:46:23;;;;;;;0.20;0.00;;;19.20;95.10;;;;;;3555920;40;20406;-62
2021/07/09 05:48:49;;;;;;;0.50;0.00;;;19.10;95.10;;;;;;3556565;40;20479;-62
2021/07/09 05:51:15;;;;;;;1.70;0.00;;;19.10;95.20;;;;;;3555898;40;20720;-63
2021/07/09 05:53:41;;;;;;;0.17;0.00;;;19.10;95.40;;;;;;3558076;40;20403;-63
2021/07/09 05:56:07;;;;;;;0.40;0.00;;;19.10;95.40;;;;;;3553298;40;20451;-62
2021/07/09 05:58:34;;;;;;;0.60;0.00;;;19.10;95.30;;;;;;3555996;40;20395;-62
2021/07/09 06:01:00;;;;;;;0.30;0.00;;;19.20;94.40;;;;;;3556683;40;20383;-63
2021/07/09 06:03:26;;;;;;;1.80;0.00;;;19.40;94.70;;;;;;3556002;40;20523;-62
2021/07/09 06:05:52;;;;;;;0.40;0.00;;;19.50;93.50;;;;;;3557265;40;20380;-62
2021/07/09 06:08:18;;;;;;;2.90;0.30;;;19.60;93.60;;;;;;3560850;40;20496;-63
2021/07/09 06:10:44;;;;;;;0.10;0.00;;;19.60;94.00;;;;;;3561851;40;20471;-62
2021/07/09 06:13:10;;;;;;;0.00;0.00;;;19.60;94.50;;;;;;3555129;40;20489;-63
2021/07/09 06:15:37;;;;;;;0.20;0.00;;;19.60;94.60;;;;;;3554189;40;20407;-63
2021/07/09 06:18:03;;;;;;;0.15;0.00;;;19.70;93.40;;;;;;3557433;40;20769;-62
2021/07/09 06:20:29;;;;;;;0.70;0.00;;;19.80;92.30;;;;;;3552695;40;20411;-62
2021/07/09 06:22:55;;;;;;;0.00;0.00;;;20.00;91.30;;;;;;3555304;40;20414;-62
2021/07/09 06:25:21;;;;;;;0.90;0.00;;;20.20;91.90;;;;;;3558486;40;20792;-62
2021/07/09 06:27:47;;;;;;;0.00;0.00;;;20.30;91.60;;;;;;3553892;40;20797;-63
2021/07/09 06:30:15;;;;;;;1.60;0.20;;;20.40;91.70;;;;;;3559714;40;20407;-63
2021/07/09 06:32:43;;;;;;;0.00;0.00;;;20.40;92.00;;;;;;3554037;40;20403;-64
2021/07/09 06:35:09;;;;;;;2.00;0.00;;;20.50;90.70;;;;;;3557134;40;20397;-63
2021/07/09 06:37:36;;;;;;;0.22;0.15;;;20.60;91.00;;;;;;3555107;40;20376;-63
2021/07/09 06:40:03;;;;;;;1.70;0.20;;;;;;;;;;3555903;40;20410;-63
2021/07/09 06:42:29;;;;;;;0.50;0.00;;;20.90;90.10;;;;;;3558047;40;20718;-63
2021/07/09 06:44:55;;;;;;;0.60;0.00;;;20.90;90.70;;;;;;3557931;40;20772;-62
2021/07/09 06:47:21;;;;;;;1.25;0.00;;;20.90;90.90;;;;;;3557472;40;20946;-63
2021/07/09 06:49:49;;;;;;;0.10;0.00;;;20.90;90.50;;;;;;3558830;40;20387;-63
2021/07/09 06:52:14;;;;;;;0.10;0.00;;;20.90;91.00;;;;;;3559323;40;20713;-63
2021/07/09 06:54:40;;;;;;;0.10;0.00;;;20.90;91.20;;;;;;3556993;40;20404;-63
2021/07/09 06:57:06;;;;;;;0.50;0.00;;;20.90;91.80;;;;;;3555217;40;20444;-62
2021/07/09 06:59:32;;;;;;;0.00;0.00;;;20.90;92.40;;;;;;3560674;40;20387;-63
2021/07/09 07:01:58;;;;;;;1.30;0.10;;;21.00;94.10;;;;;;3558445;40;20655;-63
2021/07/09 07:04:25;;;;;;;0.20;0.00;;;20.90;93.60;;;;;;3551493;40;20694;-63
2021/07/09 07:06:52;;;;;;;0.57;0.00;;;20.90;94.00;;;;;;3549835;40;20399;-63
2021/07/09 07:09:18;;;;;;;1.30;0.10;;;20.90;94.20;;;;;;3551525;40;20442;-63
2021/07/09 07:11:44;;;;;;;3.03;0.10;;;20.90;95.00;;;;;;3556813;40;20772;-63
2021/07/09 07:14:10;;;;;;;0.60;0.00;;;20.90;95.00;;;;;;3556473;40;20395;-63
2021/07/09 07:16:36;;;;;;;0.10;0.00;;;21.00;93.20;;;;;;3556002;40;20467;-63
2021/07/09 07:19:02;;;;;;;0.10;0.00;;;21.10;94.30;;;;;;3562397;40;20399;-64
2021/07/09 07:21:28;;;;;;;0.00;0.00;;;21.20;94.40;;;;;;3563199;40;20426;-64
2021/07/09 07:23:55;;;;;;;0.20;0.00;;;21.30;93.60;;;;;;3556066;40;20407;-63
2021/07/09 07:26:22;;;;;;;0.20;0.00;;;;;;;;;;3556168;40;20407;-63
2021/07/09 07:28:47;;;;;;;0.10;0.00;;;21.50;92.40;;;;;;3549152;40;20383;-63
2021/07/09 07:31:13;;;;;;;0.20;0.00;;;21.70;93.10;;;;;;3556489;40;20409;-63
2021/07/09 07:33:40;;;;;;;0.10;0.00;;;;;;;;;;3549078;40;20456;-63
2021/07/09 07:36:07;;;;;;;0.10;0.00;;;21.70;92.50;;;;;;3556163;40;20804;-63
2021/07/09 07:38:32;;;;;;;1.63;0.13;;;21.90;94.30;;;;;;3554760;40;20411;-63
2021/07/09 07:41:01;;;;;;;1.02;0.10;;;22.00;95.30;;;;;;3555869;40;20447;-63
2021/07/09 07:43:27;;;;;;;0.45;0.05;;;22.10;96.20;;;;;;3556117;40;20394;-63
2021/07/09 07:45:53;;;;;;;1.00;0.10;;;;;;;;;;3555090;40;20400;-63
2021/07/09 07:48:19;;;;;;;1.90;0.10;;;22.60;95.20;;;;;;3555635;40;20652;-63
2021/07/09 07:50:45;;;;;;;0.25;0.10;;;22.70;94.50;;;;;;3546911;40;20389;-63
2021/07/09 07:53:11;;;;;;;0.20;0.00;;;22.70;93.10;;;;;;3552019;40;20411;-63
2021/07/09 07:55:38;;;;;;;0.10;0.10;;;22.70;94.50;;;;;;3557614;40;20396;-63
2021/07/09 07:58:06;;;;;;;0.70;0.03;;;22.70;95.10;;;;;;3554275;40;20429;-63
2021/07/09 08:00:32;;;;;;;0.03;0.00;;;;;;;;;;3554495;40;20390;-63
2021/07/09 08:02:58;;;;;;;0.03;0.00;;;23.00;92.10;;;;;;3563442;40;20439;-63
2021/07/09 08:05:26;;;;;;;0.00;0.00;;;23.20;90.10;;;;;;3554360;40;20509;-63
2021/07/09 08:07:52;;;;;;;0.70;0.00;;;23.30;89.50;;;;;;3559211;40;20413;-63
2021/07/09 08:10:18;;;;;;;0.00;0.00;;;;;;;;;;3554998;40;20479;-63
2021/07/09 08:12:44;;;;;;;0.13;0.00;;;23.60;88.20;;;;;;3557715;40;20498;-63
2021/07/09 08:15:11;;;;;;;0.50;0.00;;;23.70;86.40;;;;;;3554697;40;20403;-63
2021/07/09 08:17:37;;;;;;;0.00;0.00;;;24.10;83.00;;;;;;3551399;40;20414;-63
2021/07/09 08:20:04;;;;;;;0.10;0.00;;;;;;;;;;3557195;40;20403;-63
2021/07/09 08:22:30;;;;;;;0.30;0.00;;;24.60;82.30;;;;;;3561580;40;20385;-63
2021/07/09 08:24:56;;;;;;;0.50;0.00;;;24.80;82.60;;;;;;3557523;40;20390;-64
2021/07/09 08:27:22;;;;;;;0.10;0.00;;;25.00;88.90;;;;;;3557073;40;20680;-63
2021/07/09 08:29:48;;;;;;;0.10;0.00;;;25.10;82.50;;;;;;3556325;40;20395;-63
2021/07/09 08:32:16;;;;;;;0.50;0.00;;;;;;;;;;3557230;40;20399;-64
2021/07/09 08:34:42;;;;;;;0.17;0.00;;;25.30;99.90;;;;;;3557228;40;20476;-63
2021/07/09 08:37:08;;;;;;;0.30;0.00;;;25.60;83.60;;;;;;3557091;40;20431;-63
2021/07/09 08:39:34;;;;;;;1.40;0.13;;;;;;;;;;3557229;40;20409;-63
2021/07/09 08:42:00;;;;;;;0.20;0.10;;;;;;;;;;3557157;40;20547;-63
2021/07/09 08:44:26;;;;;;;2.80;0.07;;;;;;;;;;3561001;40;20458;-64
2021/07/09 08:46:55;;;;;;;0.03;0.00;;;25.80;91.10;;;;;;3560762;40;20372;-63
2021/07/09 08:49:23;;;;;;;1.58;0.13;;;26.00;88.60;;;;;;3556002;40;20410;-63
2021/07/09 08:51:49;;;;;;;0.60;0.10;;;25.90;91.40;;;;;;3563169;40;20407;-63
2021/07/09 08:54:17;;;;;;;0.30;0.10;;;25.80;92.40;;;;;;3557126;40;20447;-63
2021/07/09 08:56:44;;;;;;;0.60;0.10;;;25.80;93.20;;;;;;3555477;40;20778;-63
2021/07/09 08:59:10;;;;;;;0.85;0.08;;;25.80;93.10;;;;;;3555241;40;20379;-64
2021/07/09 09:01:47;;;;;;;0.50;0.10;;;25.90;92.10;;;;;;3556045;40;20415;-63
2021/07/09 09:04:13;;;;;;;1.40;0.10;;;26.00;93.90;;;;;;3557753;40;20550;-64
2021/07/09 09:06:40;;;;;;;1.67;0.10;;;26.00;93.70;;;;;;3560507;40;20457;-64
2021/07/09 09:09:13;;;;;;;0.50;0.00;;;26.10;91.80;;;;;;3554116;40;20468;-63
2021/07/09 09:11:40;;;;;;;2.67;0.10;;;25.70;90.30;;;;;;3556290;40;20478;-64
2021/07/09 09:14:22;;;;;;;1.80;0.00;;;25.70;91.10;;;;;;3560891;40;20514;-63
2021/07/09 09:16:47;;;;;;;0.50;0.10;;;25.80;90.00;;;;;;3557083;40;20510;-63
2021/07/09 09:19:19;;;;;;;0.30;0.00;;;25.80;86.90;;;;;;3560768;40;20408;-63
2021/07/09 09:21:47;;;;;;;1.25;0.00;;;25.80;89.60;;;;;;3556567;40;20415;-64
2021/07/09 09:24:27;;;;;;;0.15;0.00;;;26.00;88.60;;;;;;3553603;40;20385;-63
2021/07/09 09:26:53;;;;;;;0.10;0.00;;;26.10;88.30;;;;;;3547986;40;20606;-64
2021/07/09 09:29:34;;;;;;;0.40;0.00;;;;;;;;;;3558131;40;20858;-63
2021/07/09 09:32:03;;;;;;;0.90;0.10;;;26.20;87.40;;;;;;3558657;40;20368;-64
2021/07/09 09:34:35;;;;;;;0.10;0.00;;;26.40;90.10;;;;;;3556802;40;20462;-63
2021/07/09 09:37:03;;;;;;;1.50;0.10;;;26.30;86.10;;;;;;3557659;40;20408;-64
2021/07/09 09:39:29;;;;;;;0.43;0.00;;;26.40;86.90;;;;;;3561712;40;20765;-63
2021/07/09 09:42:17;;;;;;;0.17;0.00;;;26.50;89.40;;;;;;3557840;40;20531;-63
2021/07/09 09:44:43;;;;;;;0.60;0.10;;;;;;;;;;3556923;40;20519;-64
2021/07/09 09:47:14;;;;;;;0.00;0.00;;;;;;;;;;3557661;40;20394;-63
2021/07/09 09:49:41;;;;;;;1.07;0.00;;;26.70;99.90;;;;;;3557005;40;20392;-64
2021/07/09 09:52:08;;;;;;;0.60;0.00;;;26.80;93.50;;;;;;3548887;40;20779;-63
2021/07/09 09:54:35;;;;;;;0.10;0.00;;;;;;;;;;3558389;40;20403;-63
2021/07/09 09:57:01;;;;;;;0.60;0.00;;;;;;;;;;3557745;40;20387;-63
2021/07/09 09:59:28;;;;;;;0.20;0.00;;;;;;;;;;3563960;40;20452;-63
2021/07/09 10:01:56;;;;;;;1.55;0.00;;;;;;;;;;3557713;40;20399;-63
2021/07/09 10:04:23;;;;;;;0.68;0.10;;;;;;;;;;3559092;40;20440;-63
2021/07/09 10:06:49;;;;;;;0.10;0.00;;;26.90;85.30;;;;;;3558646;40;20406;-63
2021/07/09 10:09:17;;;;;;;0.10;0.10;;;;;;;;;;3563832;40;20390;-63
2021/07/09 10:11:44;;;;;;;0.50;0.00;;;;;;;;;;3557773;40;20395;-63
2021/07/09 10:14:11;;;;;;;0.20;0.00;;;;;;;;;;3556945;40;20770;-63
2021/07/09 10:16:38;;;;;;;0.08;0.00;;;;;;;;;;3556990;40;20755;-63
2021/07/09 10:19:07;;;;;;;0.00;0.00;;;;;;;;;;3555817;40;20431;-63
2021/07/09 10:21:33;;;;;;;1.00;0.00;;;;;;;;;;3556728;40;20387;-63
2021/07/09 10:24:00;;;;;;;0.00;0.00;;;;;;;;;;3556770;40;20388;-63
2021/07/09 10:26:27;;;;;;;0.10;0.03;;;26.80;95.90;;;;;;3550470;40;20774;-63
2021/07/09 10:29:10;;;;;;;0.90;0.00;;;27.60;77.60;;;;;;3556103;40;20775;-64
2021/07/09 10:31:36;;;;;;;0.10;0.10;;;27.50;72.90;;;;;;3556769;40;20407;-64
2021/07/09 10:34:17;;;;;;;0.20;0.00;;;;;;;;;;3555399;40;20512;-63
2021/07/09 10:36:50;;;;;;;0.33;0.10;;;;;;;;;;3549895;40;20480;-64
2021/07/09 10:39:33;;;;;;;0.30;0.00;;;27.50;71.30;;;;;;3550031;40;20370;-63
2021/07/09 10:42:26;;;;;;;1.00;0.10;;;27.60;75.80;;;;;;3548638;40;20400;-63
2021/07/09 10:45:11;;;;;;;0.90;0.00;;;27.50;78.40;;;;;;3547883;40;20396;-63
2021/07/09 10:47:44;;;;;;;0.10;0.00;;;27.40;72.80;;;;;;3556313;40;20379;-63
2021/07/09 10:50:11;;;;;;;0.60;0.00;;;27.40;74.50;;;;;;3555587;40;20435;-63
2021/07/09 10:52:59;;;;;;;0.40;0.08;;;27.50;78.70;;;;;;3559061;40;20533;-63
2021/07/09 10:55:39;;;;;;;0.47;0.10;;;27.70;77.30;;;;;;3551461;40;20503;-64
2021/07/09 10:58:40;;;;;;;1.10;0.10;;;27.60;76.80;;;;;;3554903;40;20387;-63
2021/07/09 11:01:23;;;;;;;1.58;0.10;;;27.70;80.20;;;;;;3555800;40;20388;-63
2021/07/09 11:04:06;;;;;;;0.70;0.10;;;27.60;75.70;;;;;;3552787;40;20455;-63
2021/07/09 11:06:38;;;;;;;1.47;0.10;;;27.60;80.00;;;;;;3556115;40;20375;-63
2021/07/09 11:09:05;;;;;;;0.30;0.10;;;27.80;78.30;;;;;;3555724;40;20785;-63
2021/07/09 11:11:33;;;;;;;0.50;0.10;;;28.10;90.40;;;;;;3556884;40;20419;-63
2021/07/09 11:14:02;;;;;;;1.13;0.10;;;28.20;76.50;;;;;;3554619;40;20415;-63
2021/07/09 11:16:32;;;;;;;0.80;0.10;;;;;;;;;;3555189;40;20497;-63
2021/07/09 11:19:03;;;;;;;0.50;0.10;;;;;;;;;;3555770;40;20379;-64
2021/07/09 11:21:45;;;;;;;0.60;0.10;;;;;;;;;;3555807;40;20371;-63
2021/07/09 11:24:13;;;;;;;0.47;0.00;;;;;;;;;;3563878;40;20764;-63
2021/07/09 11:26:40;;;;;;;0.10;0.00;;;;;;;;;;3557491;40;20386;-63
2021/07/09 11:29:22;;;;;;;0.32;0.00;;;;;;;;;;3556264;40;20387;-63
2021/07/09 11:31:50;;;;;;;0.40;0.00;;;;;;;;;;3553236;40;20388;-64
2021/07/09 11:34:17;;;;;;;0.20;0.00;;;;;;;;;;3558054;40;20449;-63
2021/07/09 11:36:44;;;;;;;0.57;0.00;;;;;;;;;;3557825;40;20569;-64
2021/07/09 11:39:11;;;;;;;0.38;0.10;;;;;;;;;;3557774;40;20771;-64
2021/07/09 11:41:48;;;;;;;0.10;0.00;;;;;;;;;;3557916;40;20450;-64
2021/07/09 11:44:15;;;;;;;3.60;0.20;;;;;;;;;;3563392;40;20379;-64
2021/07/09 11:46:41;;;;;;;0.20;0.00;;;;;;;;;;3557378;40;20633;-64
2021/07/09 11:49:08;;;;;;;0.20;0.10;;;;;;;;;;3556408;40;20395;-63
2021/07/09 11:51:35;;;;;;;0.20;0.00;;;29.00;68.70;;;;;;3556124;40;20707;-64
2021/07/09 11:54:06;;;;;;;0.65;0.00;;;29.10;74.80;;;;;;3551144;40;20678;-64
2021/07/09 11:56:38;;;;;;;1.52;0.00;;;;;;;;;;3557266;40;20402;-64
2021/07/09 11:59:14;;;;;;;0.20;0.00;;;;;;;;;;3564840;40;20395;-64
2021/07/09 12:01:40;;;;;;;0.00;0.00;;;;;;;;;;3556136;40;20375;-64
2021/07/09 12:04:08;;;;;;;0.68;0.10;;;;;;;;;;3554403;40;20789;-64
2021/07/09 12:06:34;;;;;;;1.13;0.00;;;;;;;;;;3556177;40;20391;-64
2021/07/09 12:09:00;;;;;;;0.80;0.10;;;;;;;;;;3556715;40;20391;-63
2021/07/09 12:11:26;;;;;;;0.10;0.00;;;28.70;65.60;;;;;;3558646;40;20391;-63
2021/07/09 12:14:03;;;;;;;0.38;0.00;;;29.30;81.90;;;;;;3553776;40;20487;-64
2021/07/09 12:16:30;;;;;;;0.03;0.00;;;29.40;75.70;;;;;;3555603;40;20415;-65
2021/07/09 12:18:56;;;;;;;0.63;0.10;;;29.50;71.00;;;;;;3557233;40;20392;-64
2021/07/09 12:21:25;;;;;;;0.20;0.08;;;29.60;71.40;;;;;;3556073;40;20727;-64
2021/07/09 12:24:01;;;;;;;0.70;0.00;;;29.40;71.50;;;;;;3555978;40;20396;-65
2021/07/09 12:26:27;;;;;;;0.20;0.05;;;29.60;68.60;;;;;;3552674;40;20780;-65
2021/07/09 12:28:53;;;;;;;0.10;0.00;;;29.80;70.30;;;;;;3554887;40;20414;-64
2021/07/09 12:31:19;;;;;;;0.30;0.00;;;30.00;67.70;;;;;;3556063;40;20653;-64
2021/07/09 12:33:52;;;;;;;0.20;0.00;;;29.90;66.40;;;;;;3555798;40;20717;-65
2021/07/09 12:36:22;;;;;;;0.80;0.00;;;30.30;85.80;;;;;;3557386;40;20384;-65
2021/07/09 12:38:59;;;;;;;0.63;0.00;;;30.30;72.90;;;;;;3556996;40;20387;-64
2021/07/09 12:41:33;;;;;;;0.30;0.00;;;30.00;74.90;;;;;;3555365;40;20391;-64
2021/07/09 12:44:06;;;;;;;0.20;0.00;;;30.00;71.60;;;;;;3556852;40;20391;-65
2021/07/09 12:46:33;;;;;;;0.08;0.00;;;30.10;87.20;;;;;;3548171;40;20665;-65
2021/07/09 12:49:01;;;;;;;1.33;0.00;;;29.90;62.60;;;;;;3557296;40;20408;-64
2021/07/09 12:51:30;;;;;;;0.75;0.10;;;;;;;;;;3556500;40;20399;-64
2021/07/09 12:53:59;;;;;;;0.20;0.00;;;;;;;;;;3556842;40;20411;-65
2021/07/09 12:56:28;;;;;;;0.32;0.00;;;;;;;;;;3562239;40;20398;-65
2021/07/09 12:59:01;;;;;;;0.57;0.10;;;;;;;;;;3558853;40;20401;-64
2021/07/09 13:01:28;;;;;;;0.90;0.00;;;29.50;64.20;;;;;;3553792;40;20823;-64
2021/07/09 13:03:56;;;;;;;0.45;0.00;;;29.90;70.10;;;;;;3556782;40;20411;-65
2021/07/09 13:06:30;;;;;;;0.75;0.10;;;;;;;;;;3563269;40;20402;-65
2021/07/09 13:09:09;;;;;;;0.60;0.00;;;;;;;;;;3555302;40;20626;-62
2021/07/09 13:11:38;;;;;;;2.27;0.30;;;;;;;;;;3558363;40;20380;-65